createdAt,value
2022-12-01T00:04:31.387Z,1009.6
2022-12-01T00:10:15.330Z,1009.52
2022-12-01T00:15:58.240Z,1009.52
2022-12-01T00:21:41.373Z,1009.52
2022-12-01T00:27:24.349Z,1009.41
2022-12-01T00:33:07.337Z,1009.32
2022-12-01T00:38:52.427Z,1009.35
2022-12-01T00:44:35.401Z,1009.32
2022-12-01T00:50:18.420Z,1009.27
2022-12-01T00:56:01.429Z,1009.38
2022-12-01T01:01:45.497Z,1009.41
2022-12-01T01:07:30.522Z,1009.4
2022-12-01T01:13:15.198Z,1009.39
2022-12-01T01:18:58.295Z,1009.47
2022-12-01T01:24:41.921Z,1009.48
2022-12-01T01:30:24.937Z,1009.55
2022-12-01T01:36:08.641Z,1009.64
2022-12-01T01:41:51.689Z,1009.73
2022-12-01T01:47:36.687Z,1009.74
2022-12-01T01:53:19.821Z,1009.73
2022-12-01T01:59:03.455Z,1009.76
2022-12-01T02:04:47.426Z,1009.8
2022-12-01T02:10:35.591Z,1009.75
2022-12-01T02:16:21.607Z,1009.76
2022-12-01T02:22:11.089Z,1009.71
2022-12-01T02:28:02.833Z,1009.71
2022-12-01T02:33:51.919Z,1009.71
2022-12-01T02:39:38.979Z,1009.7
2022-12-01T02:45:25.485Z,1009.72
2022-12-01T02:51:12.272Z,1009.74
2022-12-01T02:56:56.320Z,1009.71
2022-12-01T03:02:44.546Z,1009.72
2022-12-01T03:08:33.194Z,1009.71
2022-12-01T03:14:22.654Z,1009.66
2022-12-01T03:20:07.849Z,1009.66
2022-12-01T03:25:53.122Z,1009.59
2022-12-01T03:31:37.988Z,1009.66
2022-12-01T03:37:24.121Z,1009.64
2022-12-01T03:43:08.388Z,1009.64
2022-12-01T03:48:51.882Z,1009.65
2022-12-01T03:54:40.662Z,1009.66
2022-12-01T04:00:23.803Z,1009.7
2022-12-01T04:06:07.088Z,1009.69
2022-12-01T04:11:49.739Z,1009.74
2022-12-01T04:17:32.824Z,1009.7
2022-12-01T04:23:16.117Z,1009.69
2022-12-01T04:29:00.040Z,1009.67
2022-12-01T04:34:43.071Z,1009.7
2022-12-01T04:40:26.155Z,1009.72
2022-12-01T04:46:09.783Z,1009.73
2022-12-01T04:51:53.084Z,1009.67
2022-12-01T04:57:36.004Z,1009.59
2022-12-01T05:03:18.973Z,1009.64
2022-12-01T05:09:02.376Z,1009.66
2022-12-01T05:14:46.433Z,1009.64
2022-12-01T05:20:29.639Z,1009.59
2022-12-01T05:26:12.886Z,1009.72
2022-12-01T05:31:55.900Z,1009.71
2022-12-01T05:37:39.227Z,1009.66
2022-12-01T05:43:29.522Z,1009.65
2022-12-01T05:49:12.632Z,1009.65
2022-12-01T05:54:56.666Z,1009.68
2022-12-01T06:00:46.091Z,1009.71
2022-12-01T06:06:30.448Z,1009.73
2022-12-01T06:12:14.008Z,1009.75
2022-12-01T06:17:59.291Z,1009.76
2022-12-01T06:23:42.329Z,1009.75
2022-12-01T06:29:25.378Z,1009.78
2022-12-01T06:35:10.670Z,1009.74
2022-12-01T06:40:59.797Z,1009.83
2022-12-01T06:46:43.071Z,1009.88
2022-12-01T06:52:26.221Z,1009.91
2022-12-01T06:58:09.381Z,1009.91
2022-12-01T07:03:52.804Z,1009.91
2022-12-01T07:09:35.866Z,1009.98
2022-12-01T07:15:19.316Z,1010.02
2022-12-01T07:21:04.556Z,1010.1
2022-12-01T07:26:47.486Z,1010.1
2022-12-01T07:32:31.726Z,1010.12
2022-12-01T07:38:22.190Z,1010.16
2022-12-01T07:44:05.384Z,1010.15
2022-12-01T07:49:49.315Z,1010.13
2022-12-01T07:55:34.089Z,1010.21
2022-12-01T08:01:19.836Z,1010.25
2022-12-01T08:07:04.097Z,1010.28
2022-12-01T08:12:48.186Z,1010.37
2022-12-01T08:18:31.348Z,1010.45
2022-12-01T08:24:15.367Z,1010.45
2022-12-01T08:29:58.294Z,1010.53
2022-12-01T08:35:41.595Z,1010.57
2022-12-01T08:41:24.983Z,1010.58
2022-12-01T08:47:08.129Z,1010.59
2022-12-01T08:52:58.242Z,1010.63
2022-12-01T08:58:41.409Z,1010.65
2022-12-01T09:04:25.486Z,1010.62
2022-12-01T09:10:09.246Z,1010.57
2022-12-01T09:15:59.752Z,1010.58
2022-12-01T09:21:43.261Z,1010.55
2022-12-01T09:27:26.136Z,1010.63
2022-12-01T09:33:10.205Z,1010.64
2022-12-01T09:38:53.307Z,1010.71
2022-12-01T09:44:39.445Z,1010.69
2022-12-01T09:50:23.349Z,1010.74
2022-12-01T09:56:13.086Z,1010.71
2022-12-01T10:01:59.639Z,1010.67
2022-12-01T10:07:45.325Z,1010.61
2022-12-01T10:13:29.652Z,1010.57
2022-12-01T10:19:16.172Z,1010.53
2022-12-01T10:25:02.664Z,1010.51
2022-12-01T10:30:49.956Z,1010.41
2022-12-01T10:36:34.126Z,1010.42
2022-12-01T10:42:19.928Z,1010.42
2022-12-01T10:48:14.410Z,1010.38
2022-12-01T10:54:07.104Z,1010.34
2022-12-01T10:59:56.409Z,1010.32
2022-12-01T11:05:41.686Z,1010.34
2022-12-01T11:11:29.849Z,1010.31
2022-12-01T11:17:25.372Z,1010.29
2022-12-01T11:23:22.944Z,1010.21
2022-12-01T11:29:07.718Z,1010.19
2022-12-01T11:34:55.184Z,1010.19
2022-12-01T11:40:43.049Z,1010.1
2022-12-01T11:46:29.196Z,1009.99
2022-12-01T11:52:23.517Z,1010.03
2022-12-01T11:58:08.980Z,1010.13
2022-12-01T12:03:57.138Z,1010.12
2022-12-01T12:09:47.513Z,1010.06
2022-12-01T12:15:37.850Z,1010.09
2022-12-01T12:21:26.293Z,1010.05
2022-12-01T12:27:13.261Z,1010.04
2022-12-01T12:33:05.050Z,1009.98
2022-12-01T12:38:54.977Z,1010
2022-12-01T12:44:47.644Z,1009.82
2022-12-01T12:50:35.585Z,1009.85
2022-12-01T12:56:21.288Z,1009.83
2022-12-01T13:02:09.277Z,1009.88
2022-12-01T13:07:54.720Z,1009.79
2022-12-01T13:13:41.588Z,1009.75
2022-12-01T13:19:27.785Z,1009.72
2022-12-01T13:25:12.433Z,1009.68
2022-12-01T13:31:08.039Z,1009.66
2022-12-01T13:36:55.253Z,1009.6
2022-12-01T13:42:38.669Z,1009.57
2022-12-01T13:48:36.361Z,1009.48
2022-12-01T13:54:30.561Z,1009.46
2022-12-01T14:00:25.092Z,1009.49
2022-12-01T14:06:20.265Z,1009.4
2022-12-01T14:12:04.613Z,1009.44
2022-12-01T14:17:48.578Z,1009.45
2022-12-01T14:23:32.936Z,1009.44
2022-12-01T14:29:39.312Z,1009.43
2022-12-01T14:35:22.369Z,1009.4
2022-12-01T14:41:07.721Z,1009.4
2022-12-01T14:46:53.858Z,1009.36
2022-12-01T14:52:38.477Z,1009.41
2022-12-01T14:58:22.861Z,1009.4
2022-12-01T15:04:07.277Z,1009.4
2022-12-01T15:10:02.518Z,1009.35
2022-12-01T15:15:55.388Z,1009.32
2022-12-01T15:21:38.672Z,1009.37
2022-12-01T15:27:32.177Z,1009.37
2022-12-01T15:33:27.733Z,1009.33
2022-12-01T15:39:21.368Z,1009.27
2022-12-01T15:45:09.334Z,1009.24
2022-12-01T15:50:57.187Z,1009.15
2022-12-01T15:56:41.675Z,1009.19
2022-12-01T16:02:27.770Z,1009.23
2022-12-01T16:08:19.360Z,1009.22
2022-12-01T16:14:03.935Z,1009.25
2022-12-01T16:19:46.842Z,1009.25
2022-12-01T16:25:34.370Z,1009.33
2022-12-01T16:31:22.844Z,1009.36
2022-12-01T16:37:05.765Z,1009.41
2022-12-01T16:42:50.376Z,1009.41
2022-12-01T16:48:34.453Z,1009.41
2022-12-01T16:54:17.734Z,1009.37
2022-12-01T17:00:04.230Z,1009.5
2022-12-01T17:05:48.149Z,1009.53
2022-12-01T17:11:31.184Z,1009.57
2022-12-01T17:17:14.082Z,1009.62
2022-12-01T17:22:57.400Z,1009.64
2022-12-01T17:28:41.412Z,1009.62
2022-12-01T17:34:24.342Z,1009.66
2022-12-01T17:40:08.531Z,1009.73
2022-12-01T17:45:52.265Z,1009.73
2022-12-01T17:51:36.334Z,1009.73
2022-12-01T17:57:19.916Z,1009.69
2022-12-01T18:03:04.201Z,1009.73
2022-12-01T18:08:47.585Z,1009.67
2022-12-01T18:14:30.543Z,1009.59
2022-12-01T18:20:14.361Z,1009.63
2022-12-01T18:25:57.312Z,1009.65
2022-12-01T18:31:41.659Z,1009.56
2022-12-01T18:37:24.730Z,1009.51
2022-12-01T18:43:07.922Z,1009.49
2022-12-01T18:48:51.932Z,1009.46
2022-12-01T18:54:34.996Z,1009.43
2022-12-01T19:06:24.645Z,1009.42
2022-12-01T19:12:08.206Z,1009.39
2022-12-01T19:17:51.571Z,1009.41
2022-12-01T19:23:35.022Z,1009.42
2022-12-01T19:29:18.239Z,1009.39
2022-12-01T19:35:01.257Z,1009.38
2022-12-01T19:40:44.482Z,1009.46
2022-12-01T19:46:27.744Z,1009.38
2022-12-01T19:52:11.849Z,1009.34
2022-12-01T19:57:54.868Z,1009.34
2022-12-01T20:03:38.387Z,1009.32
2022-12-01T20:09:21.425Z,1009.33
2022-12-01T20:15:04.959Z,1009.38
2022-12-01T20:20:48.961Z,1009.37
2022-12-01T20:26:32.777Z,1009.39
2022-12-01T20:32:23.413Z,1009.39
2022-12-01T20:38:06.902Z,1009.46
2022-12-01T20:43:51.036Z,1009.47
2022-12-01T20:49:34.052Z,1009.39
2022-12-01T20:55:18.510Z,1009.3
2022-12-01T21:01:07.159Z,1009.37
2022-12-01T21:06:50.394Z,1009.34
2022-12-01T21:12:33.518Z,1009.32
2022-12-01T21:18:20.277Z,1009.25
2022-12-01T21:24:11.878Z,1009.23
2022-12-01T21:29:56.003Z,1009.2
2022-12-01T21:35:39.030Z,1009.18
2022-12-01T21:41:25.197Z,1009.18
2022-12-01T21:47:14.434Z,1009.21
2022-12-01T21:52:58.619Z,1009.12
2022-12-01T21:58:41.651Z,1009.13
2022-12-01T22:04:26.605Z,1009.06
2022-12-01T22:10:22.560Z,1008.84
2022-12-01T22:16:10.555Z,1008.85
2022-12-01T22:21:58.215Z,1008.79
2022-12-01T22:27:42.672Z,1008.87
2022-12-01T22:33:34.173Z,1008.89
2022-12-01T22:39:26.787Z,1008.87
2022-12-01T22:45:17.756Z,1008.76
2022-12-01T22:51:06.550Z,1008.78
2022-12-01T22:56:50.863Z,1008.76
2022-12-01T23:02:34.929Z,1008.77
2022-12-01T23:08:22.813Z,1008.76
2022-12-01T23:14:07.705Z,1008.74
2022-12-01T23:19:51.323Z,1008.7
2022-12-01T23:25:34.780Z,1008.64
2022-12-01T23:31:17.847Z,1008.76
2022-12-01T23:37:03.389Z,1008.61
2022-12-01T23:42:46.387Z,1008.51
2022-12-01T23:48:33.553Z,1008.44
2022-12-01T23:54:17.541Z,1008.49
